Time;durP1;ratioP1;P1;durP2;ratioP2;P2;SDS_P1;SDS_P2;PMS_P1;PMS_P2;Temp;Humidity;BMP_temperature;BMP_pressure;BME280_temperature;BME280_humidity;BME280_pressure;Samples;Min_cycle;Max_cycle;Signal;HPM_P1;HPM_P2
2022/06/24 00:00:39;;;;;;;4.70;2.35;;;22.60;57.70;;;;;;5025565;28;20029;-78
2022/06/24 00:03:05;;;;;;;5.07;2.55;;;22.50;57.80;;;;;;4994631;28;20034;-79
2022/06/24 00:05:30;;;;;;;4.47;2.20;;;22.50;58.00;;;;;;4992432;28;20038;-78
2022/06/24 00:07:56;;;;;;;4.43;2.47;;;22.50;58.20;;;;;;5002163;28;20124;-78
2022/06/24 00:10:30;;;;;;;7.43;2.20;;;22.50;58.20;;;;;;4998860;28;20051;-79
2022/06/24 00:12:55;;;;;;;2.50;2.03;;;22.50;58.50;;;;;;5007981;28;20606;-78
2022/06/24 00:15:24;;;;;;;3.17;2.58;;;22.40;58.30;;;;;;5025859;28;20033;-78
2022/06/24 00:17:50;;;;;;;3.63;2.17;;;22.40;58.60;;;;;;4995669;28;20037;-78
2022/06/24 00:20:17;;;;;;;5.90;2.42;;;22.40;58.60;;;;;;5003646;28;20102;-78
2022/06/24 00:22:44;;;;;;;2.53;2.00;;;22.40;58.60;;;;;;5001634;28;20111;-79
2022/06/24 00:25:14;;;;;;;4.03;2.40;;;22.40;58.80;;;;;;4982090;28;20029;-78
2022/06/24 00:27:40;;;;;;;6.30;2.80;;;22.30;59.00;;;;;;4991835;28;20045;-79
2022/06/24 00:30:13;;;;;;;4.57;2.60;;;22.30;59.20;;;;;;5001385;28;20168;-79
2022/06/24 00:32:39;;;;;;;3.28;2.25;;;22.30;59.40;;;;;;4997329;28;20090;-79
2022/06/24 00:35:13;;;;;;;6.47;2.40;;;22.30;59.40;;;;;;5007408;28;20030;-78
2022/06/24 00:37:40;;;;;;;3.92;2.10;;;22.30;59.60;;;;;;4985183;28;20045;-78
2022/06/24 00:40:14;;;;;;;4.10;2.67;;;22.30;59.60;;;;;;5018370;28;20107;-78
2022/06/24 00:42:43;;;;;;;6.47;2.20;;;22.20;59.80;;;;;;5012726;28;20046;-78
2022/06/24 00:45:24;;;;;;;5.65;2.47;;;22.20;59.70;;;;;;4976302;28;20144;-78
2022/06/24 00:47:49;;;;;;;5.57;2.75;;;22.20;59.90;;;;;;5003111;28;20044;-79
2022/06/24 00:50:25;;;;;;;5.88;2.13;;;22.20;59.90;;;;;;5008585;28;20038;-78
2022/06/24 00:52:52;;;;;;;6.53;2.53;;;22.20;60.20;;;;;;5002731;28;20615;-78
2022/06/24 00:55:31;;;;;;;4.88;2.38;;;22.20;59.90;;;;;;5020018;28;20120;-78
2022/06/24 00:57:58;;;;;;;3.97;2.70;;;22.20;60.40;;;;;;5011047;28;20045;-78
2022/06/24 01:00:24;;;;;;;3.25;2.15;;;22.30;60.10;;;;;;5013355;28;20040;-78
2022/06/24 01:02:55;;;;;;;5.18;2.08;;;22.30;60.00;;;;;;5007816;28;20040;-78
2022/06/24 01:05:20;;;;;;;10.07;3.05;;;22.30;60.00;;;;;;4997179;28;20984;-77
2022/06/24 01:07:46;;;;;;;7.05;2.70;;;22.30;60.00;;;;;;5001642;28;20125;-78
2022/06/24 01:10:11;;;;;;;5.00;1.95;;;22.30;60.00;;;;;;5000126;28;20029;-78
2022/06/24 01:12:37;;;;;;;6.60;2.33;;;22.30;60.00;;;;;;4998101;28;20058;-78
2022/06/24 01:15:03;;;;;;;5.57;2.53;;;22.30;59.90;;;;;;5001886;28;20073;-77
2022/06/24 01:17:29;;;;;;;4.80;1.63;;;22.30;59.80;;;;;;5019067;28;20076;-78
2022/06/24 01:19:54;;;;;;;12.32;2.42;;;22.30;59.70;;;;;;5003085;28;20049;-78
2022/06/24 01:22:24;;;;;;;6.40;1.88;;;22.40;59.60;;;;;;4994464;28;20041;-78
2022/06/24 01:24:49;;;;;;;6.35;1.70;;;22.40;59.40;;;;;;4982145;28;20044;-78
2022/06/24 01:27:15;;;;;;;6.55;1.83;;;22.40;59.30;;;;;;4995334;28;20046;-79
2022/06/24 01:29:40;;;;;;;5.57;1.50;;;22.40;59.30;;;;;;4990718;28;20088;-78
2022/06/24 01:32:06;;;;;;;4.25;1.25;;;22.40;59.20;;;;;;4990940;28;20038;-78
2022/06/24 01:34:32;;;;;;;4.63;1.50;;;22.40;59.10;;;;;;5017232;28;20035;-78
2022/06/24 01:36:57;;;;;;;3.95;1.30;;;22.40;59.10;;;;;;5004969;28;20057;-77
2022/06/24 01:39:23;;;;;;;3.83;1.60;;;22.40;59.00;;;;;;4998489;28;20043;-79
2022/06/24 01:41:52;;;;;;;9.25;1.45;;;22.40;58.80;;;;;;5007670;28;20049;-78
2022/06/24 01:44:18;;;;;;;5.25;1.63;;;22.40;58.80;;;;;;4992244;28;20037;-78
2022/06/24 01:46:43;;;;;;;7.20;1.80;;;22.40;58.70;;;;;;4972954;28;20051;-77
2022/06/24 01:49:09;;;;;;;7.88;1.83;;;22.50;58.70;;;;;;5021818;28;20034;-78
2022/06/24 01:51:35;;;;;;;7.30;1.83;;;22.50;58.70;;;;;;5002028;28;20049;-78
2022/06/24 01:54:01;;;;;;;6.93;1.70;;;22.40;58.70;;;;;;4993090;28;20113;-78
2022/06/24 01:56:26;;;;;;;4.43;1.40;;;22.50;58.80;;;;;;4976216;28;20029;-78
2022/06/24 01:58:52;;;;;;;6.63;1.98;;;22.50;58.80;;;;;;4999224;28;20148;-78
2022/06/24 02:01:17;;;;;;;4.97;1.58;;;22.50;58.90;;;;;;4990710;28;20040;-78
2022/06/24 02:03:43;;;;;;;7.53;1.98;;;22.50;59.00;;;;;;5017960;28;20472;-78
2022/06/24 02:06:10;;;;;;;3.92;1.30;;;22.50;58.90;;;;;;4994586;28;20460;-77
2022/06/24 02:08:35;;;;;;;2.85;1.38;;;22.50;59.00;;;;;;5008636;28;20030;-78
2022/06/24 02:13:46;;;;;;;6.35;1.27;;;22.40;59.10;;;;;;4998329;28;20091;-78
2022/06/24 02:16:12;;;;;;;3.75;1.63;;;22.40;59.10;;;;;;5005154;28;20482;-78
2022/06/24 02:18:37;;;;;;;4.78;1.52;;;22.40;59.20;;;;;;5007982;28;20096;-78
2022/06/24 02:21:03;;;;;;;4.95;1.75;;;22.40;59.20;;;;;;5016544;28;20029;-78
2022/06/24 02:23:29;;;;;;;5.88;1.73;;;22.40;59.30;;;;;;5005872;28;20046;-78
2022/06/24 02:25:54;;;;;;;9.95;1.65;;;22.40;59.70;;;;;;5023293;28;20083;-77
2022/06/24 02:28:20;;;;;;;31.25;4.45;;;22.30;59.90;;;;;;4997704;28;20043;-78
2022/06/24 02:30:46;;;;;;;9.77;2.65;;;22.30;60.40;;;;;;5031624;28;20449;-78
2022/06/24 02:33:12;;;;;;;13.43;2.30;;;22.20;61.30;;;;;;5031145;28;20513;-81
2022/06/24 02:35:38;;;;;;;9.25;2.92;;;22.00;61.70;;;;;;5003278;28;20037;-80
2022/06/24 02:38:04;;;;;;;10.70;2.45;;;21.90;62.00;;;;;;5011642;28;20038;-79
2022/06/24 02:40:47;;;;;;;9.43;2.35;;;21.80;62.40;;;;;;5011162;28;20551;-78
2022/06/24 02:43:21;;;;;;;7.18;1.48;;;21.80;63.10;;;;;;5012382;28;20041;-78
2022/06/24 02:45:50;;;;;;;6.75;1.63;;;21.80;63.70;;;;;;5000233;28;20034;-79
2022/06/24 02:48:16;;;;;;;13.15;1.85;;;21.80;63.90;;;;;;4990083;28;20056;-78
2022/06/24 02:50:43;;;;;;;10.27;1.77;;;21.80;64.10;;;;;;5027170;28;20101;-78
2022/06/24 02:53:09;;;;;;;13.90;2.45;;;21.80;64.40;;;;;;4987952;28;20549;-78
2022/06/24 02:55:35;;;;;;;11.57;1.98;;;21.70;64.70;;;;;;5010982;28;20107;-78
2022/06/24 02:58:01;;;;;;;8.18;1.73;;;21.70;65.30;;;;;;4993424;28;20148;-78
2022/06/24 03:00:26;;;;;;;8.88;1.63;;;21.70;65.50;;;;;;4982656;28;20105;-78
2022/06/24 03:02:52;;;;;;;9.15;1.48;;;21.60;65.40;;;;;;5021990;28;20510;-78
2022/06/24 03:05:17;;;;;;;8.40;1.63;;;21.60;65.40;;;;;;4983377;28;20053;-78
2022/06/24 03:07:43;;;;;;;6.65;1.55;;;21.60;65.70;;;;;;5006485;28;20072;-78
2022/06/24 03:10:09;;;;;;;7.32;1.40;;;21.50;66.20;;;;;;4982663;28;20135;-78
2022/06/24 03:12:34;;;;;;;9.35;1.73;;;21.50;66.60;;;;;;5013845;28;20033;-78
2022/06/24 03:15:00;;;;;;;6.95;1.60;;;21.40;66.80;;;;;;4995937;28;20402;-78
2022/06/24 03:17:25;;;;;;;5.65;1.40;;;21.30;67.00;;;;;;5003464;28;20045;-78
2022/06/24 03:19:51;;;;;;;11.15;1.80;;;21.30;67.20;;;;;;4994275;28;20529;-77
2022/06/24 03:22:16;;;;;;;11.90;1.48;;;21.30;67.50;;;;;;5012372;28;20119;-78
2022/06/24 03:24:42;;;;;;;10.75;1.77;;;21.30;67.80;;;;;;5004658;28;20535;-77
2022/06/24 03:27:07;;;;;;;8.25;1.48;;;21.30;68.10;;;;;;5000849;28;20567;-78
2022/06/24 03:29:33;;;;;;;11.77;2.95;;;21.30;68.40;;;;;;5009240;28;20056;-78
2022/06/24 03:31:58;;;;;;;10.27;1.80;;;21.20;68.50;;;;;;5008485;28;20046;-78
2022/06/24 03:34:24;;;;;;;8.00;1.83;;;21.20;68.70;;;;;;4997495;28;20084;-78
2022/06/24 03:36:50;;;;;;;6.82;2.20;;;21.10;68.90;;;;;;4990343;28;20040;-78
2022/06/24 03:39:15;;;;;;;12.88;2.13;;;21.10;69.20;;;;;;4984411;28;20079;-78
2022/06/24 03:41:41;;;;;;;5.45;1.60;;;21.00;69.40;;;;;;4982605;28;20042;-78
2022/06/24 03:44:06;;;;;;;15.63;1.80;;;21.00;69.80;;;;;;4998590;28;20033;-78
2022/06/24 03:46:32;;;;;;;3.20;1.20;;;21.00;69.80;;;;;;4992630;28;20101;-78
2022/06/24 03:48:57;;;;;;;6.13;1.80;;;20.90;69.90;;;;;;4999810;28;20134;-78
2022/06/24 03:51:23;;;;;;;9.60;1.90;;;20.90;69.90;;;;;;4999110;28;20125;-78
2022/06/24 03:53:48;;;;;;;5.18;1.83;;;20.90;70.00;;;;;;5007688;28;20497;-78
2022/06/24 03:56:14;;;;;;;8.07;1.30;;;20.90;70.20;;;;;;5018033;28;20636;-78
2022/06/24 03:58:39;;;;;;;8.75;1.48;;;20.90;70.40;;;;;;4996788;28;20044;-78
2022/06/24 04:01:05;;;;;;;12.07;2.22;;;20.90;70.60;;;;;;5012371;28;20026;-79
2022/06/24 04:03:30;;;;;;;5.68;1.77;;;20.80;70.70;;;;;;4989794;28;20037;-79
2022/06/24 04:05:56;;;;;;;2.88;1.65;;;20.80;70.80;;;;;;4997929;28;20034;-79
2022/06/24 04:08:21;;;;;;;7.22;1.60;;;20.80;70.90;;;;;;4985961;28;20026;-79
2022/06/24 04:10:47;;;;;;;6.47;1.55;;;20.70;70.80;;;;;;4999003;28;20568;-79
2022/06/24 04:13:14;;;;;;;6.68;1.40;;;20.70;71.00;;;;;;5001004;28;20163;-79
2022/06/24 04:15:46;;;;;;;8.25;1.58;;;20.70;71.20;;;;;;5002452;28;20041;-79
2022/06/24 04:18:12;;;;;;;6.05;1.90;;;20.70;71.60;;;;;;5014465;28;20033;-79
2022/06/24 04:20:37;;;;;;;6.03;1.73;;;20.70;71.40;;;;;;5019608;28;20038;-79
2022/06/24 04:23:03;;;;;;;5.80;1.38;;;20.70;72.40;;;;;;5019809;28;20050;-79
2022/06/24 04:25:28;;;;;;;7.28;1.33;;;20.70;71.60;;;;;;5020140;28;20272;-79
2022/06/24 04:27:54;;;;;;;3.58;1.35;;;20.70;71.70;;;;;;5033492;28;20053;-79
2022/06/24 04:30:19;;;;;;;9.18;2.10;;;20.70;71.90;;;;;;5025866;28;20380;-79
2022/06/24 04:32:45;;;;;;;6.30;1.40;;;20.70;71.90;;;;;;5005588;28;20056;-78
2022/06/24 04:35:10;;;;;;;3.03;0.90;;;20.70;71.90;;;;;;4995620;28;20073;-79
2022/06/24 04:37:39;;;;;;;4.35;1.35;;;20.70;72.00;;;;;;4960845;28;20105;-79
2022/06/24 04:40:14;;;;;;;4.32;1.10;;;20.70;72.20;;;;;;5001326;28;20041;-79
2022/06/24 04:42:39;;;;;;;6.65;1.23;;;20.70;72.40;;;;;;4979755;28;20096;-79
2022/06/24 04:45:06;;;;;;;6.05;1.25;;;20.70;72.20;;;;;;5002124;28;20037;-79
2022/06/24 04:47:31;;;;;;;6.70;1.15;;;20.70;72.20;;;;;;5014467;28;20045;-79
2022/06/24 04:49:57;;;;;;;3.50;0.80;;;20.80;72.40;;;;;;5009842;28;20573;-78
2022/06/24 04:52:22;;;;;;;7.00;1.23;;;20.80;72.20;;;;;;4993068;28;20207;-79
2022/06/24 04:54:50;;;;;;;1.92;0.90;;;20.80;72.30;;;;;;4988545;28;20525;-78
2022/06/24 04:57:15;;;;;;;4.93;1.30;;;20.70;72.40;;;;;;5003205;28;20453;-78
2022/06/24 04:59:41;;;;;;;3.05;0.82;;;20.80;72.40;;;;;;5016152;28;20048;-79
2022/06/24 05:02:07;;;;;;;4.18;0.93;;;20.80;72.40;;;;;;4993908;28;20243;-79
2022/06/24 05:04:32;;;;;;;3.92;0.90;;;20.80;72.20;;;;;;5018387;28;20038;-79
2022/06/24 05:06:58;;;;;;;3.25;1.67;;;20.80;72.20;;;;;;5009769;28;20123;-79
2022/06/24 05:09:23;;;;;;;2.70;1.15;;;20.80;72.30;;;;;;5000329;28;20117;-79
2022/06/24 05:11:50;;;;;;;4.72;1.00;;;20.80;72.40;;;;;;5005470;28;20037;-78
2022/06/24 05:14:16;;;;;;;2.15;0.73;;;20.80;72.40;;;;;;5003900;28;20292;-79
2022/06/24 05:16:42;;;;;;;6.38;1.77;;;20.80;72.30;;;;;;5006037;28;20176;-79
2022/06/24 05:19:08;;;;;;;5.35;1.48;;;20.80;72.50;;;;;;4995159;28;20033;-79
2022/06/24 05:21:34;;;;;;;3.42;1.13;;;20.90;72.80;;;;;;5015679;28;20042;-78
2022/06/24 05:23:59;;;;;;;6.18;1.00;;;20.80;72.90;;;;;;5019145;28;20515;-78
2022/06/24 05:26:25;;;;;;;3.10;0.98;;;20.80;73.10;;;;;;5007903;28;20045;-78
2022/06/24 05:28:50;;;;;;;3.63;1.13;;;20.80;73.00;;;;;;5014428;28;20042;-78
2022/06/24 05:31:16;;;;;;;3.08;0.88;;;20.90;72.80;;;;;;4986880;28;20406;-78
2022/06/24 05:33:41;;;;;;;4.13;1.35;;;20.90;72.90;;;;;;4997082;28;20049;-78
2022/06/24 05:36:07;;;;;;;3.60;1.30;;;20.90;72.70;;;;;;5013386;28;20063;-78
2022/06/24 05:38:32;;;;;;;4.82;1.65;;;20.90;72.80;;;;;;5014801;28;20493;-78
2022/06/24 05:40:58;;;;;;;2.30;1.08;;;20.90;72.90;;;;;;5027582;28;20079;-78
2022/06/24 05:43:24;;;;;;;6.50;1.40;;;20.90;73.10;;;;;;5006969;28;20394;-78
2022/06/24 05:45:49;;;;;;;2.60;1.00;;;21.00;73.30;;;;;;4986848;28;20466;-77
2022/06/24 05:48:15;;;;;;;5.03;1.13;;;21.00;73.30;;;;;;4992089;28;20417;-78
2022/06/24 05:50:40;;;;;;;3.33;1.08;;;21.00;73.30;;;;;;4995619;28;20533;-78
2022/06/24 05:55:52;;;;;;;4.13;1.30;;;21.00;73.20;;;;;;4995422;28;20072;-79
2022/06/24 05:58:18;;;;;;;3.58;1.35;;;21.00;73.50;;;;;;4986690;28;20429;-79
2022/06/24 06:00:43;;;;;;;2.05;1.23;;;21.00;73.90;;;;;;5014678;28;20049;-78
2022/06/24 06:03:09;;;;;;;3.00;1.40;;;20.90;74.10;;;;;;5001128;28;20048;-78
2022/06/24 06:05:34;;;;;;;4.13;1.30;;;20.90;74.10;;;;;;5000873;28;20044;-79
2022/06/24 06:08:00;;;;;;;5.18;1.15;;;20.90;74.30;;;;;;4998418;28;20156;-78
2022/06/24 06:10:25;;;;;;;1.75;0.93;;;20.90;74.40;;;;;;5006491;28;20044;-78
2022/06/24 06:12:51;;;;;;;3.65;1.33;;;20.90;74.30;;;;;;4999400;28;20037;-79
2022/06/24 06:15:17;;;;;;;3.20;1.20;;;20.90;74.30;;;;;;5016147;28;20045;-79
2022/06/24 06:17:42;;;;;;;2.33;1.05;;;20.90;74.50;;;;;;5018949;28;20036;-78
2022/06/24 06:20:08;;;;;;;7.13;1.35;;;20.90;74.60;;;;;;5012938;28;21430;-78
2022/06/24 06:22:34;;;;;;;4.47;1.30;;;20.90;74.60;;;;;;5004400;28;20048;-79
2022/06/24 06:24:59;;;;;;;2.58;1.05;;;20.90;74.70;;;;;;5000756;28;20037;-79
2022/06/24 06:27:25;;;;;;;5.80;0.90;;;21.00;74.80;;;;;;5004531;28;20038;-78
2022/06/24 06:29:50;;;;;;;6.63;1.75;;;21.00;74.70;;;;;;4979987;28;20041;-78
2022/06/24 06:32:16;;;;;;;1.98;1.30;;;21.10;74.60;;;;;;4990656;28;20046;-78
2022/06/24 06:34:41;;;;;;;2.05;1.02;;;21.10;74.50;;;;;;5000125;28;20531;-78
2022/06/24 06:37:07;;;;;;;2.53;1.08;;;21.20;74.40;;;;;;5000320;28;20443;-78
2022/06/24 06:39:32;;;;;;;5.15;1.25;;;21.30;74.10;;;;;;5008703;28;20658;-78
2022/06/24 06:41:58;;;;;;;5.47;1.38;;;21.40;73.90;;;;;;5003624;28;20580;-77
2022/06/24 06:44:23;;;;;;;2.35;1.38;;;21.50;73.60;;;;;;5008201;28;20172;-77
2022/06/24 06:46:49;;;;;;;4.18;2.28;;;21.60;73.60;;;;;;4995273;28;20041;-77
2022/06/24 06:49:14;;;;;;;3.53;1.38;;;21.70;73.40;;;;;;4998975;28;21087;-77
2022/06/24 06:51:40;;;;;;;3.05;1.50;;;21.70;73.30;;;;;;5024466;28;20056;-77
2022/06/24 06:54:05;;;;;;;3.17;1.50;;;21.80;73.40;;;;;;4996487;28;20311;-77
2022/06/24 06:56:31;;;;;;;3.65;2.25;;;21.80;73.50;;;;;;5011409;28;20510;-77
2022/06/24 06:58:57;;;;;;;3.47;1.70;;;21.90;73.40;;;;;;4982864;28;20342;-77
2022/06/24 07:01:22;;;;;;;3.72;1.75;;;21.90;73.40;;;;;;4971463;28;20037;-76
2022/06/24 07:03:48;;;;;;;2.65;1.95;;;22.00;73.30;;;;;;4982817;28;20026;-76
2022/06/24 07:06:13;;;;;;;3.75;2.50;;;22.00;73.20;;;;;;4993223;28;20030;-76
2022/06/24 07:08:39;;;;;;;5.65;2.00;;;22.10;73.20;;;;;;4994627;28;20069;-76
2022/06/24 07:11:04;;;;;;;4.88;2.00;;;22.20;73.30;;;;;;4970564;28;20034;-77
2022/06/24 07:13:30;;;;;;;2.88;2.10;;;22.30;72.80;;;;;;4984758;28;20057;-80
2022/06/24 07:15:55;;;;;;;5.38;2.13;;;22.40;72.40;;;;;;5010975;28;20121;-79
2022/06/24 07:18:21;;;;;;;4.50;1.70;;;22.50;72.40;;;;;;5017703;28;20050;-79
2022/06/24 07:20:46;;;;;;;4.15;2.30;;;22.50;72.10;;;;;;4993690;28;20116;-79
2022/06/24 07:23:12;;;;;;;3.70;1.95;;;22.60;72.00;;;;;;5001959;28;20121;-79
2022/06/24 07:25:37;;;;;;;3.53;2.55;;;22.60;71.90;;;;;;5013608;28;20033;-79
2022/06/24 07:28:04;;;;;;;2.67;1.98;;;22.50;71.80;;;;;;4993449;28;20440;-78
2022/06/24 07:30:30;;;;;;;3.10;2.38;;;22.60;71.80;;;;;;5002053;28;20590;-77
2022/06/24 07:32:55;;;;;;;6.18;2.00;;;22.60;71.70;;;;;;4985323;28;20060;-78
2022/06/24 07:35:21;;;;;;;5.18;2.28;;;22.70;72.50;;;;;;4996246;28;20033;-79
2022/06/24 07:37:46;;;;;;;3.53;2.15;;;22.70;71.60;;;;;;5012599;28;20092;-79
2022/06/24 07:40:12;;;;;;;3.65;2.03;;;22.80;71.50;;;;;;5009226;28;20037;-79
2022/06/24 07:42:38;;;;;;;7.45;2.53;;;22.90;71.20;;;;;;4990241;28;20026;-80
2022/06/24 07:45:03;;;;;;;7.10;2.47;;;22.90;71.00;;;;;;4984741;28;20076;-81
2022/06/24 07:47:29;;;;;;;4.82;2.72;;;22.90;70.80;;;;;;5000349;28;20140;-80
2022/06/24 07:49:54;;;;;;;4.43;2.20;;;23.00;70.60;;;;;;5000076;28;20034;-80
2022/06/24 07:52:20;;;;;;;6.05;2.70;;;23.10;70.60;;;;;;5003732;28;20037;-80
2022/06/24 07:54:46;;;;;;;5.40;2.80;;;23.30;70.50;;;;;;4985164;28;20044;-80
2022/06/24 07:57:11;;;;;;;6.45;2.70;;;23.40;70.10;;;;;;5005115;28;20533;-81
2022/06/24 07:59:38;;;;;;;5.63;2.63;;;23.50;69.70;;;;;;4999253;28;20521;-80
2022/06/24 08:02:06;;;;;;;4.43;2.78;;;23.60;69.40;;;;;;5012526;28;20033;-80
2022/06/24 08:04:31;;;;;;;6.95;2.75;;;23.60;69.10;;;;;;4993711;28;20109;-79
2022/06/24 08:06:57;;;;;;;7.03;3.22;;;23.70;69.00;;;;;;4993866;28;20152;-80
2022/06/24 08:09:27;;;;;;;4.15;2.20;;;23.80;68.70;;;;;;5008755;28;20100;-79
2022/06/24 08:11:53;;;;;;;7.57;2.33;;;23.90;68.50;;;;;;4995357;28;20038;-79
2022/06/24 08:14:18;;;;;;;5.05;2.53;;;24.00;68.20;;;;;;5015406;28;20281;-78
2022/06/24 08:16:44;;;;;;;6.75;2.42;;;24.10;67.90;;;;;;4980308;28;20113;-79
2022/06/24 08:19:10;;;;;;;5.78;2.47;;;24.10;67.60;;;;;;4995888;28;20049;-79
2022/06/24 08:21:35;;;;;;;6.40;2.70;;;24.30;67.50;;;;;;5000618;28;20034;-81
2022/06/24 08:24:01;;;;;;;6.55;2.35;;;24.50;67.10;;;;;;4992639;28;20694;-81
2022/06/24 08:26:27;;;;;;;5.88;2.90;;;24.70;66.60;;;;;;4992473;28;20041;-81
2022/06/24 08:28:53;;;;;;;5.30;2.88;;;25.00;66.10;;;;;;5009397;28;20109;-79
2022/06/24 08:31:19;;;;;;;4.95;2.80;;;25.10;65.50;;;;;;4993384;28;20030;-80
2022/06/24 08:33:44;;;;;;;4.28;2.42;;;25.20;65.30;;;;;;5010267;28;20418;-81
2022/06/24 08:36:10;;;;;;;11.80;3.17;;;25.30;64.90;;;;;;5012735;28;20402;-79
2022/06/24 08:38:36;;;;;;;6.35;2.00;;;25.40;64.50;;;;;;4994229;28;20034;-80
2022/06/24 08:41:02;;;;;;;5.75;2.55;;;25.50;64.20;;;;;;4994484;28;20120;-80
2022/06/24 08:43:34;;;;;;;7.40;2.08;;;25.50;63.50;;;;;;5001241;28;20038;-80
2022/06/24 08:46:03;;;;;;;4.80;2.00;;;25.40;63.20;;;;;;4994253;28;20030;-80
2022/06/24 08:48:31;;;;;;;6.38;2.33;;;25.50;63.20;;;;;;4999878;28;20046;-79
2022/06/24 08:50:57;;;;;;;4.47;2.10;;;25.50;63.10;;;;;;4998044;28;20032;-80
2022/06/24 08:53:23;;;;;;;7.28;3.03;;;25.50;63.20;;;;;;5019860;28;20037;-82
2022/06/24 08:55:50;;;;;;;8.35;2.40;;;25.40;63.20;;;;;;5010952;28;20037;-82
2022/06/24 08:58:16;;;;;;;7.03;2.20;;;25.40;63.50;;;;;;4999634;28;20157;-82
2022/06/24 09:00:42;;;;;;;9.63;2.63;;;25.40;63.70;;;;;;5000357;28;20573;-81
2022/06/24 09:03:08;;;;;;;6.05;2.47;;;25.40;63.80;;;;;;4991464;28;20040;-82
2022/06/24 09:05:33;;;;;;;4.63;2.63;;;25.40;64.00;;;;;;5007751;28;20041;-82
2022/06/24 09:08:09;;;;;;;5.60;2.17;;;25.30;63.80;;;;;;5019192;28;20041;-83
2022/06/24 09:10:37;;;;;;;6.05;2.08;;;25.30;64.00;;;;;;4997359;28;20053;-82
2022/06/24 09:13:03;;;;;;;7.25;2.42;;;25.40;63.90;;;;;;5003990;28;20101;-82
2022/06/24 09:15:28;;;;;;;5.45;2.00;;;25.50;63.90;;;;;;5000410;28;20671;-80
2022/06/24 09:17:54;;;;;;;4.53;1.88;;;25.60;63.80;;;;;;4992314;28;20124;-81
2022/06/24 09:20:30;;;;;;;3.13;1.98;;;25.70;63.80;;;;;;5016414;28;20116;-79
2022/06/24 09:23:09;;;;;;;5.18;2.08;;;25.80;63.60;;;;;;4986311;28;20038;-79
2022/06/24 09:25:51;;;;;;;3.58;2.75;;;26.00;63.10;;;;;;5014932;28;20038;-79
2022/06/24 09:28:24;;;;;;;3.80;1.83;;;26.10;62.70;;;;;;4998659;28;20579;-79
2022/06/24 09:30:50;;;;;;;3.95;1.92;;;26.20;62.80;;;;;;5019274;28;20407;-79
2022/06/24 09:33:19;;;;;;;6.90;2.05;;;26.40;62.40;;;;;;4983715;28;20045;-79
2022/06/24 09:35:44;;;;;;;6.53;2.20;;;26.60;61.80;;;;;;5013990;28;20037;-80
2022/06/24 09:38:11;;;;;;;3.25;1.63;;;26.70;61.40;;;;;;5008554;28;20033;-79
2022/06/24 09:40:36;;;;;;;3.60;1.80;;;26.80;61.20;;;;;;4995599;28;20038;-79
2022/06/24 09:43:06;;;;;;;2.08;1.40;;;26.80;60.80;;;;;;5009791;28;20029;-80
2022/06/24 09:45:51;;;;;;;2.85;1.15;;;27.00;60.40;;;;;;5005324;28;20140;-79
2022/06/24 09:48:29;;;;;;;3.72;1.40;;;27.10;59.70;;;;;;5011230;28;20282;-79
2022/06/24 09:50:56;;;;;;;2.15;1.10;;;27.40;59.40;;;;;;5016081;28;20057;-79
2022/06/24 09:53:23;;;;;;;1.35;0.90;;;27.60;59.00;;;;;;5008037;28;20042;-80
2022/06/24 09:55:49;;;;;;;5.53;1.17;;;27.70;58.40;;;;;;5005972;28;20069;-80
2022/06/24 09:58:14;;;;;;;2.50;0.88;;;28.00;57.80;;;;;;4980641;28;20121;-80
2022/06/24 10:00:43;;;;;;;2.70;0.90;;;28.10;57.30;;;;;;4980921;28;20519;-80
2022/06/24 10:03:11;;;;;;;1.42;0.85;;;28.30;56.90;;;;;;4977048;28;20242;-80
2022/06/24 10:05:39;;;;;;;2.45;0.90;;;28.40;56.40;;;;;;4987867;28;20033;-79
2022/06/24 10:08:06;;;;;;;3.10;1.05;;;28.50;55.90;;;;;;4988648;28;20457;-80
2022/06/24 10:10:33;;;;;;;1.50;1.13;;;28.60;55.50;;;;;;4982247;28;20038;-79
2022/06/24 10:13:03;;;;;;;2.20;1.08;;;28.70;55.20;;;;;;5009415;28;20438;-80
2022/06/24 10:15:28;;;;;;;3.63;1.13;;;28.80;54.60;;;;;;4980970;28;20029;-81
2022/06/24 10:17:54;;;;;;;1.55;0.90;;;28.90;54.40;;;;;;4991781;28;20395;-80
2022/06/24 10:20:19;;;;;;;1.95;1.17;;;28.90;54.10;;;;;;4988250;28;20509;-81
2022/06/24 10:22:46;;;;;;;1.73;0.98;;;29.00;53.80;;;;;;5022309;28;20046;-81
2022/06/24 10:25:39;;;;;;;0.95;0.80;;;29.00;53.60;;;;;;5004516;28;20401;-81
2022/06/24 10:28:05;;;;;;;1.55;0.80;;;29.10;52.70;;;;;;5010180;28;20076;-80
2022/06/24 10:30:39;;;;;;;1.20;0.85;;;29.10;53.00;;;;;;5011460;28;20037;-81
2022/06/24 10:33:21;;;;;;;2.00;1.15;;;29.00;52.30;;;;;;5027927;28;20076;-80
2022/06/24 10:35:54;;;;;;;3.55;0.80;;;29.00;52.30;;;;;;5003772;28;20030;-81
2022/06/24 10:38:21;;;;;;;5.53;1.20;;;29.00;52.20;;;;;;4998771;28;20068;-81
2022/06/24 10:40:47;;;;;;;1.50;0.85;;;29.00;52.30;;;;;;4993191;28;20048;-80
2022/06/24 10:43:13;;;;;;;1.00;0.80;;;29.10;52.20;;;;;;5006544;28;20033;-81
2022/06/24 10:45:38;;;;;;;2.88;0.88;;;29.20;51.90;;;;;;5005069;28;20050;-80
2022/06/24 10:48:04;;;;;;;1.60;0.90;;;29.30;51.60;;;;;;4996250;28;20411;-81
2022/06/24 10:50:29;;;;;;;2.08;0.80;;;29.50;51.30;;;;;;5025555;28;20046;-81
2022/06/24 10:52:56;;;;;;;3.03;1.40;;;29.60;50.80;;;;;;4994594;28;20041;-82
2022/06/24 10:55:23;;;;;;;5.57;0.90;;;29.60;50.40;;;;;;5001212;28;20323;-80
2022/06/24 10:58:06;;;;;;;3.00;0.95;;;29.60;50.00;;;;;;5005242;28;20037;-81
2022/06/24 11:00:37;;;;;;;2.83;0.98;;;29.70;49.80;;;;;;5005003;28;20038;-81
2022/06/24 11:03:03;;;;;;;2.35;0.90;;;29.80;49.30;;;;;;4996948;28;20083;-80
2022/06/24 11:05:36;;;;;;;1.48;0.70;;;29.90;49.40;;;;;;5010443;28;20046;-80
2022/06/24 11:08:02;;;;;;;2.42;1.23;;;30.10;48.80;;;;;;5005091;28;20054;-81
2022/06/24 11:10:30;;;;;;;1.38;1.00;;;30.20;48.70;;;;;;5010579;28;20037;-81
2022/06/24 11:12:58;;;;;;;2.58;1.05;;;30.40;48.20;;;;;;4976002;28;20132;-81
2022/06/24 11:15:36;;;;;;;2.63;0.70;;;30.50;47.90;;;;;;4957398;28;20034;-81
2022/06/24 11:18:09;;;;;;;0.73;0.73;;;30.70;47.30;;;;;;5011221;28;20114;-81
2022/06/24 11:20:39;;;;;;;2.35;1.00;;;30.90;46.80;;;;;;4979138;28;20056;-80
2022/06/24 11:23:09;;;;;;;1.90;0.83;;;31.20;46.70;;;;;;5009171;28;20027;-81
2022/06/24 11:25:36;;;;;;;1.80;0.80;;;31.40;46.40;;;;;;5001972;28;20488;-80
2022/06/24 11:28:02;;;;;;;1.10;0.70;;;31.60;46.20;;;;;;5013041;28;20874;-80
2022/06/24 11:30:27;;;;;;;4.55;0.90;;;31.70;45.80;;;;;;4980789;28;20042;-80
2022/06/24 11:32:57;;;;;;;0.93;0.70;;;31.80;45.30;;;;;;5016095;28;20030;-80
2022/06/24 11:35:23;;;;;;;1.20;0.80;;;31.80;44.90;;;;;;4987674;28;20056;-81
2022/06/24 11:37:48;;;;;;;0.82;0.82;;;31.80;44.80;;;;;;4989790;28;20104;-80
2022/06/24 11:40:24;;;;;;;1.90;1.10;;;31.70;44.50;;;;;;5013802;28;20053;-81
2022/06/24 11:42:50;;;;;;;2.35;0.63;;;31.60;44.40;;;;;;4973246;28;20064;-79
2022/06/24 11:45:22;;;;;;;2.10;0.70;;;31.70;44.70;;;;;;4981542;28;20369;-80
2022/06/24 11:47:48;;;;;;;1.92;0.90;;;31.80;44.50;;;;;;4987840;28;20440;-81
2022/06/24 11:50:19;;;;;;;2.45;0.70;;;31.90;44.30;;;;;;4993600;28;20021;-80
2022/06/24 11:52:48;;;;;;;1.73;0.68;;;32.10;43.60;;;;;;4999401;28;20047;-80
2022/06/24 11:55:29;;;;;;;1.25;0.63;;;32.30;43.60;;;;;;5006277;28;20038;-79
2022/06/24 11:57:55;;;;;;;0.80;0.80;;;32.50;42.20;;;;;;4978095;28;20030;-81
2022/06/24 12:00:22;;;;;;;1.90;0.70;;;32.60;42.80;;;;;;4989576;28;20033;-81
2022/06/24 12:02:47;;;;;;;1.27;1.17;;;32.50;42.30;;;;;;4978478;28;20049;-80
2022/06/24 12:05:13;;;;;;;1.80;0.80;;;32.50;42.30;;;;;;4992648;28;20033;-82
2022/06/24 12:07:38;;;;;;;1.20;0.70;;;32.50;42.20;;;;;;5021102;28;20049;-80
2022/06/24 12:10:06;;;;;;;1.42;0.90;;;32.60;42.00;;;;;;5013403;28;20029;-81
2022/06/24 12:12:32;;;;;;;1.77;0.88;;;32.60;41.80;;;;;;5004040;28;20042;-81
2022/06/24 12:14:57;;;;;;;3.78;0.80;;;32.50;41.70;;;;;;4981058;28;20080;-81
2022/06/24 12:17:23;;;;;;;1.25;0.70;;;32.50;41.60;;;;;;5007939;28;20085;-82
2022/06/24 12:19:56;;;;;;;2.05;0.80;;;32.30;41.50;;;;;;5004094;28;20049;-81
2022/06/24 12:22:22;;;;;;;1.70;0.88;;;32.20;41.30;;;;;;5001838;28;20040;-81
2022/06/24 12:24:47;;;;;;;2.50;1.00;;;32.20;41.70;;;;;;5003696;28;20034;-81
2022/06/24 12:27:13;;;;;;;1.20;1.00;;;32.30;42.10;;;;;;4992825;28;20050;-80
2022/06/24 12:29:40;;;;;;;2.08;1.00;;;32.30;42.00;;;;;;5016084;28;20095;-81
2022/06/24 12:32:06;;;;;;;3.35;0.88;;;32.30;41.90;;;;;;5006918;28;20038;-81
2022/06/24 12:34:36;;;;;;;1.95;0.98;;;32.20;41.80;;;;;;4999919;28;20045;-80
2022/06/24 12:37:10;;;;;;;3.17;0.90;;;31.90;41.50;;;;;;5015405;28;22112;-79
2022/06/24 12:39:38;;;;;;;1.45;0.75;;;31.70;41.50;;;;;;5021436;28;20061;-80
2022/06/24 12:42:04;;;;;;;2.08;0.90;;;31.60;41.90;;;;;;5018919;28;20096;-80
2022/06/24 12:44:43;;;;;;;1.00;0.90;;;31.60;41.90;;;;;;5004837;28;20133;-80
2022/06/24 12:52:44;;;;;;;1.05;0.80;;;31.60;41.70;;;;;;4998401;28;20129;-79
2022/06/24 12:55:11;;;;;;;2.75;0.82;;;31.50;41.80;;;;;;4987410;28;20037;-80